Time;durP1;ratioP1;P1;durP2;ratioP2;P2;SDS_P1;SDS_P2;PMS_P1;PMS_P2;Temp;Humidity;BMP_temperature;BMP_pressure;BME280_temperature;BME280_humidity;BME280_pressure;Samples;Min_cycle;Max_cycle;Signal;HPM_P1;HPM_P2
2022/07/07 00:01:57;;;;;;;7.60;2.80;;;17.00;99.90;;;;;;5069910;28;20089;-41
2022/07/07 00:04:23;;;;;;;7.53;3.00;;;17.00;99.90;;;;;;5078639;28;20051;-42
2022/07/07 00:06:49;;;;;;;9.00;2.95;;;17.00;99.90;;;;;;5076548;28;20100;-41
2022/07/07 00:09:15;;;;;;;7.15;2.83;;;17.00;99.90;;;;;;5090107;28;20051;-41
2022/07/07 00:11:41;;;;;;;6.78;3.03;;;16.90;99.90;;;;;;5088127;28;20056;-41
2022/07/07 00:14:08;;;;;;;8.90;3.05;;;16.90;99.90;;;;;;5068163;28;20040;-41
2022/07/07 00:16:36;;;;;;;6.57;2.85;;;16.90;99.90;;;;;;5073641;28;20122;-42
2022/07/07 00:19:02;;;;;;;6.10;3.38;;;17.00;99.90;;;;;;5077987;28;20040;-41
2022/07/07 00:21:28;;;;;;;8.57;2.65;;;17.00;99.90;;;;;;5070814;28;20047;-41
2022/07/07 00:23:54;;;;;;;5.68;2.67;;;16.90;99.90;;;;;;5061935;28;20041;-41
2022/07/07 00:26:20;;;;;;;8.65;2.80;;;16.90;99.90;;;;;;5062870;28;20105;-41
2022/07/07 00:28:47;;;;;;;6.35;2.97;;;16.90;99.90;;;;;;5075374;28;20100;-40
2022/07/07 00:31:13;;;;;;;8.82;2.78;;;16.90;99.90;;;;;;5091200;28;20055;-40
2022/07/07 00:33:39;;;;;;;6.47;2.38;;;16.80;99.90;;;;;;5082197;28;20430;-41
2022/07/07 00:36:07;;;;;;;5.32;2.25;;;16.70;99.90;;;;;;5070079;28;20566;-41
2022/07/07 00:38:33;;;;;;;5.05;2.22;;;16.70;99.90;;;;;;5059449;28;20056;-41
2022/07/07 00:40:59;;;;;;;6.75;2.10;;;16.60;99.90;;;;;;5071063;28;20363;-41
2022/07/07 00:43:25;;;;;;;4.85;2.00;;;16.60;99.90;;;;;;5068512;28;20049;-41
2022/07/07 00:45:51;;;;;;;7.03;1.80;;;16.50;99.90;;;;;;5070222;28;20399;-41
2022/07/07 00:48:21;;;;;;;5.30;1.60;;;16.50;99.90;;;;;;5054097;28;20048;-41
2022/07/07 00:50:47;;;;;;;4.22;2.08;;;16.40;99.90;;;;;;5082083;28;20055;-41
2022/07/07 00:53:15;;;;;;;7.68;2.30;;;16.40;99.90;;;;;;5068251;28;20045;-41
2022/07/07 00:55:41;;;;;;;5.72;2.20;;;16.40;99.90;;;;;;5072572;28;20056;-41
2022/07/07 00:58:07;;;;;;;3.97;1.92;;;16.30;99.90;;;;;;5059204;28;20065;-41
2022/07/07 01:00:33;;;;;;;6.88;2.08;;;16.30;99.90;;;;;;5069793;28;20064;-41
2022/07/07 01:03:00;;;;;;;6.90;2.22;;;16.30;99.90;;;;;;5080088;28;20399;-41
2022/07/07 01:05:26;;;;;;;7.38;2.70;;;16.30;99.90;;;;;;5072097;28;20113;-41
2022/07/07 01:07:53;;;;;;;4.30;2.30;;;16.20;99.90;;;;;;5053784;28;20056;-40
2022/07/07 01:10:19;;;;;;;7.00;2.53;;;16.20;99.90;;;;;;5087325;28;20044;-41
2022/07/07 01:12:45;;;;;;;6.72;2.47;;;16.20;99.90;;;;;;5076675;28;20047;-41
2022/07/07 01:15:12;;;;;;;9.88;3.00;;;16.20;99.90;;;;;;5070004;28;20083;-40
2022/07/07 01:17:39;;;;;;;6.43;2.60;;;16.10;99.90;;;;;;5053417;28;20491;-41
2022/07/07 01:20:06;;;;;;;6.40;2.47;;;16.10;99.90;;;;;;5068587;28;20499;-41
2022/07/07 01:22:34;;;;;;;6.70;2.67;;;16.10;99.90;;;;;;5069264;28;20040;-41
2022/07/07 01:25:01;;;;;;;8.38;3.17;;;16.10;99.90;;;;;;5059812;28;20056;-41
2022/07/07 01:27:27;;;;;;;7.47;2.90;;;16.10;99.90;;;;;;5056095;28;20040;-42
2022/07/07 01:29:54;;;;;;;9.02;2.83;;;16.10;99.90;;;;;;5079402;28;20067;-41
2022/07/07 01:32:22;;;;;;;8.13;2.65;;;16.10;99.90;;;;;;5082249;28;20437;-41
2022/07/07 01:34:48;;;;;;;11.93;2.80;;;16.10;99.90;;;;;;5075802;28;20135;-41
2022/07/07 01:37:15;;;;;;;9.32;3.22;;;16.10;99.90;;;;;;5074446;28;20056;-41
2022/07/07 01:39:42;;;;;;;12.45;3.28;;;16.20;99.90;;;;;;5087050;28;20044;-41
2022/07/07 01:42:10;;;;;;;10.43;3.25;;;16.10;99.90;;;;;;5069847;28;20052;-42
2022/07/07 01:44:40;;;;;;;11.65;3.58;;;16.10;99.90;;;;;;5069462;28;20120;-41
2022/07/07 01:47:07;;;;;;;12.52;2.97;;;16.20;99.90;;;;;;5053594;28;20123;-42
2022/07/07 01:49:33;;;;;;;10.07;3.10;;;16.20;99.90;;;;;;5075557;28;20056;-41
2022/07/07 01:52:00;;;;;;;8.73;2.70;;;16.20;99.90;;;;;;5074915;28;20599;-41
2022/07/07 01:54:27;;;;;;;10.43;2.92;;;16.20;99.90;;;;;;5082006;28;20048;-41
2022/07/07 01:56:53;;;;;;;13.13;2.97;;;16.20;99.90;;;;;;5060133;28;20063;-41
2022/07/07 01:59:19;;;;;;;16.30;3.05;;;16.20;99.90;;;;;;5068294;28;20045;-41
2022/07/07 02:01:44;;;;;;;11.85;2.65;;;16.20;99.90;;;;;;5078296;28;20048;-41
2022/07/07 02:04:10;;;;;;;9.93;2.53;;;16.20;99.90;;;;;;5087760;28;20048;-41
2022/07/07 02:06:37;;;;;;;10.25;2.30;;;16.20;99.90;;;;;;5069893;28;20509;-41
2022/07/07 02:09:03;;;;;;;9.65;2.85;;;16.20;99.90;;;;;;5086951;28;20423;-41
2022/07/07 02:11:29;;;;;;;11.90;3.13;;;16.20;99.90;;;;;;5086680;28;20048;-41
2022/07/07 02:13:55;;;;;;;11.68;2.60;;;16.20;99.90;;;;;;5075884;28;20052;-41
2022/07/07 02:16:23;;;;;;;10.55;2.95;;;16.20;99.90;;;;;;5060370;28;20084;-42
2022/07/07 02:18:51;;;;;;;14.10;2.67;;;16.20;99.90;;;;;;5064992;28;20044;-41
2022/07/07 02:21:17;;;;;;;10.82;2.58;;;16.20;99.90;;;;;;5085276;28;20040;-41
2022/07/07 02:23:44;;;;;;;13.05;2.40;;;16.20;99.90;;;;;;5079171;28;20419;-41
2022/07/07 02:26:10;;;;;;;9.68;2.17;;;16.20;99.90;;;;;;5073787;28;20048;-41
2022/07/07 02:28:36;;;;;;;8.20;1.98;;;16.20;99.90;;;;;;5070433;28;20089;-41
2022/07/07 02:31:02;;;;;;;8.13;2.17;;;16.20;99.90;;;;;;5084652;28;20125;-41
2022/07/07 02:33:28;;;;;;;8.82;2.03;;;16.10;99.90;;;;;;5068580;28;20415;-41
2022/07/07 02:35:54;;;;;;;8.02;2.05;;;16.10;99.90;;;;;;5066754;28;20584;-41
2022/07/07 02:38:20;;;;;;;7.18;1.88;;;16.10;99.90;;;;;;5053113;28;20048;-41
2022/07/07 02:40:46;;;;;;;11.75;2.05;;;16.20;99.90;;;;;;5071730;28;20047;-41
2022/07/07 02:43:15;;;;;;;9.40;1.90;;;16.10;99.90;;;;;;5072043;28;20040;-41
2022/07/07 02:45:44;;;;;;;11.20;2.40;;;16.10;99.90;;;;;;5071857;28;20048;-41
2022/07/07 02:48:11;;;;;;;11.38;2.17;;;16.10;99.90;;;;;;5056302;28;20052;-40
2022/07/07 02:50:38;;;;;;;8.52;1.88;;;16.10;99.90;;;;;;5087814;28;20047;-41
2022/07/07 02:53:04;;;;;;;10.73;2.17;;;16.10;99.90;;;;;;5071737;28;20129;-41
2022/07/07 02:55:30;;;;;;;12.65;2.28;;;16.10;99.90;;;;;;5074011;28;20580;-41
2022/07/07 02:58:00;;;;;;;9.43;2.13;;;16.10;99.90;;;;;;5055851;28;20055;-41
2022/07/07 03:00:27;;;;;;;11.13;2.53;;;16.10;99.90;;;;;;5072494;28;20091;-41
2022/07/07 03:02:53;;;;;;;8.25;1.85;;;16.10;99.90;;;;;;5071788;28;20068;-41
2022/07/07 03:05:22;;;;;;;9.27;2.55;;;16.10;99.90;;;;;;5071909;28;20487;-41
2022/07/07 03:07:49;;;;;;;9.63;2.25;;;16.10;99.90;;;;;;5066252;28;20040;-41
2022/07/07 03:10:15;;;;;;;11.27;2.58;;;16.10;99.90;;;;;;5092360;28;20079;-41
2022/07/07 03:12:41;;;;;;;9.20;2.25;;;16.10;99.90;;;;;;5080233;28;20427;-41
2022/07/07 03:15:08;;;;;;;14.05;2.40;;;16.10;99.90;;;;;;5076694;28;20145;-40
2022/07/07 03:17:34;;;;;;;9.68;2.35;;;16.10;99.90;;;;;;5067916;28;20043;-42
2022/07/07 03:19:59;;;;;;;13.25;2.03;;;16.10;99.90;;;;;;5089777;28;20084;-41
2022/07/07 03:22:25;;;;;;;11.60;1.95;;;16.00;99.90;;;;;;5091755;28;20129;-41
2022/07/07 03:24:51;;;;;;;11.13;1.77;;;16.00;99.90;;;;;;5063647;28;20044;-41
2022/07/07 03:27:17;;;;;;;10.80;1.60;;;16.00;99.90;;;;;;5060481;28;20032;-42
2022/07/07 03:29:42;;;;;;;8.45;1.48;;;15.90;99.90;;;;;;5069560;28;20040;-41
2022/07/07 03:32:09;;;;;;;8.07;1.48;;;16.00;99.90;;;;;;5071581;28;20090;-42
2022/07/07 03:34:35;;;;;;;8.38;1.38;;;16.00;99.90;;;;;;5071687;28;20165;-41
2022/07/07 03:37:01;;;;;;;7.05;1.13;;;15.90;99.90;;;;;;5068337;28;20491;-41
2022/07/07 03:39:27;;;;;;;6.85;1.10;;;15.90;99.90;;;;;;5084706;28;20048;-41
2022/07/07 03:41:52;;;;;;;7.38;0.80;;;15.90;99.90;;;;;;5079042;28;20052;-41
2022/07/07 03:44:18;;;;;;;7.70;0.75;;;15.90;99.90;;;;;;5086798;28;20052;-41
2022/07/07 03:46:44;;;;;;;8.93;1.27;;;15.90;99.90;;;;;;5055712;28;20589;-41
2022/07/07 03:49:10;;;;;;;8.18;1.20;;;15.90;99.90;;;;;;5070062;28;20080;-41
2022/07/07 03:51:36;;;;;;;6.40;1.20;;;15.80;99.90;;;;;;5071016;28;20115;-41
2022/07/07 03:54:02;;;;;;;9.45;1.30;;;15.80;99.90;;;;;;5070247;28;20472;-41
2022/07/07 03:56:28;;;;;;;8.20;1.17;;;15.80;99.90;;;;;;5068261;28;21076;-41
2022/07/07 03:58:54;;;;;;;9.63;1.50;;;15.70;99.90;;;;;;5070589;28;20044;-42
2022/07/07 04:01:20;;;;;;;6.85;1.52;;;15.70;99.90;;;;;;5069858;28;20051;-42
2022/07/07 04:03:45;;;;;;;9.20;1.52;;;15.70;99.90;;;;;;5070694;28;20082;-42
2022/07/07 04:06:11;;;;;;;8.77;1.50;;;15.60;99.90;;;;;;5062854;28;20071;-41
2022/07/07 04:08:36;;;;;;;10.27;1.40;;;15.60;99.90;;;;;;5065912;28;20499;-42
2022/07/07 04:11:03;;;;;;;10.60;1.33;;;15.60;99.90;;;;;;5086212;28;20053;-42
2022/07/07 04:13:28;;;;;;;7.88;1.52;;;15.60;99.90;;;;;;5081837;28;20477;-42
2022/07/07 04:15:56;;;;;;;11.07;1.88;;;15.60;99.90;;;;;;5077369;28;20048;-42
2022/07/07 04:18:21;;;;;;;6.28;1.17;;;15.60;99.90;;;;;;5063533;28;20064;-42
2022/07/07 04:20:47;;;;;;;8.98;1.55;;;15.60;99.90;;;;;;5079548;28;20483;-41
2022/07/07 04:23:13;;;;;;;9.52;1.63;;;15.50;99.90;;;;;;5076268;28;20044;-41
2022/07/07 04:25:39;;;;;;;7.15;1.70;;;15.50;99.90;;;;;;5080038;28;20048;-41
2022/07/07 04:28:04;;;;;;;7.80;1.58;;;15.50;99.90;;;;;;5061335;28;20132;-41
2022/07/07 04:30:30;;;;;;;10.38;1.42;;;15.50;99.90;;;;;;5077990;28;20078;-41
2022/07/07 04:32:56;;;;;;;4.93;1.35;;;15.50;99.90;;;;;;5081902;28;20172;-41
2022/07/07 04:35:21;;;;;;;5.43;1.25;;;15.50;99.90;;;;;;5070541;28;20131;-41
2022/07/07 04:37:47;;;;;;;7.00;1.02;;;15.50;99.90;;;;;;5058943;28;20040;-41
2022/07/07 04:40:13;;;;;;;5.63;0.90;;;15.50;99.90;;;;;;5089240;28;20052;-42
2022/07/07 04:42:38;;;;;;;5.78;0.88;;;15.50;99.90;;;;;;5090080;28;20506;-41
2022/07/07 04:45:04;;;;;;;4.43;1.00;;;15.50;99.90;;;;;;5070736;28;20514;-41
2022/07/07 04:47:30;;;;;;;5.65;1.35;;;15.50;99.90;;;;;;5054307;28;20122;-42
2022/07/07 04:49:56;;;;;;;9.25;1.35;;;15.40;99.90;;;;;;5079809;28;20067;-41
2022/07/07 04:52:21;;;;;;;7.13;1.27;;;15.40;99.90;;;;;;5089359;28;20036;-42
2022/07/07 04:54:47;;;;;;;10.27;1.45;;;15.40;99.90;;;;;;5081622;28;20075;-41
2022/07/07 04:57:13;;;;;;;9.18;1.27;;;15.40;99.90;;;;;;5065972;28;20052;-42
2022/07/07 04:59:40;;;;;;;9.60;1.98;;;15.30;99.90;;;;;;5057936;28;20053;-41
2022/07/07 05:02:06;;;;;;;12.13;1.88;;;15.40;99.90;;;;;;5063848;28;20437;-42
2022/07/07 05:04:32;;;;;;;9.65;2.10;;;15.30;99.90;;;;;;5069337;28;20079;-41
2022/07/07 05:06:58;;;;;;;8.82;2.13;;;15.40;99.90;;;;;;5053469;28;20570;-41
2022/07/07 05:09:23;;;;;;;10.68;2.13;;;15.30;99.90;;;;;;5077660;28;20044;-41
2022/07/07 05:11:49;;;;;;;11.20;2.40;;;15.30;99.90;;;;;;5084621;28;20056;-41
2022/07/07 05:14:15;;;;;;;10.52;1.92;;;15.30;99.90;;;;;;5068906;28;20051;-41
2022/07/07 05:16:40;;;;;;;7.50;1.65;;;15.30;99.90;;;;;;5057762;28;20711;-41
2022/07/07 05:19:09;;;;;;;10.07;1.90;;;15.20;99.90;;;;;;5062081;28;20133;-41
2022/07/07 05:21:34;;;;;;;8.63;2.10;;;15.30;99.90;;;;;;5066167;28;20123;-41
2022/07/07 05:24:00;;;;;;;8.07;1.77;;;15.30;99.90;;;;;;5063151;28;20147;-41
2022/07/07 05:26:26;;;;;;;8.27;1.90;;;15.30;99.90;;;;;;5060214;28;20440;-41
2022/07/07 05:28:51;;;;;;;13.18;2.28;;;15.30;99.90;;;;;;5064730;28;20036;-41
2022/07/07 05:31:17;;;;;;;11.18;2.30;;;15.30;99.90;;;;;;5087769;28;20048;-41
2022/07/07 05:33:43;;;;;;;6.43;1.90;;;15.30;99.90;;;;;;5088705;28;20044;-41
2022/07/07 05:36:09;;;;;;;12.98;2.13;;;15.30;99.90;;;;;;5064538;28;20123;-41
2022/07/07 05:38:35;;;;;;;13.50;1.80;;;15.30;99.90;;;;;;5053460;28;20136;-41
2022/07/07 05:41:01;;;;;;;8.63;2.10;;;15.30;99.90;;;;;;5066877;28;20119;-41
2022/07/07 05:43:27;;;;;;;9.57;2.03;;;15.30;99.90;;;;;;5063623;28;20480;-41
2022/07/07 05:45:53;;;;;;;7.70;1.70;;;15.40;99.90;;;;;;5068702;28;20079;-41
2022/07/07 05:48:19;;;;;;;5.93;1.30;;;15.40;99.90;;;;;;5052339;28;20125;-41
2022/07/07 05:50:45;;;;;;;6.28;1.70;;;15.40;99.90;;;;;;5077915;28;20917;-40
2022/07/07 05:53:11;;;;;;;10.48;1.58;;;15.50;99.90;;;;;;5054473;28;20041;-41
2022/07/07 05:55:37;;;;;;;6.82;1.65;;;15.50;99.90;;;;;;5062688;28;20503;-41
2022/07/07 05:58:03;;;;;;;9.55;1.48;;;15.60;99.90;;;;;;5049158;28;20032;-41
2022/07/07 06:00:29;;;;;;;8.32;1.17;;;15.70;99.90;;;;;;5069722;28;20060;-41
2022/07/07 06:02:55;;;;;;;7.78;1.70;;;15.90;99.90;;;;;;5063428;28;20680;-41
2022/07/07 06:05:21;;;;;;;7.80;1.40;;;16.00;99.90;;;;;;5068537;28;20048;-41
2022/07/07 06:07:47;;;;;;;6.35;1.30;;;16.00;99.90;;;;;;5057433;28;20044;-41
2022/07/07 06:10:14;;;;;;;7.40;1.20;;;16.00;99.90;;;;;;5078047;28;20032;-41
2022/07/07 06:12:40;;;;;;;6.70;1.30;;;16.10;99.90;;;;;;5065609;28;20045;-41
2022/07/07 06:15:06;;;;;;;8.60;1.40;;;16.10;99.90;;;;;;5074668;28;20040;-41
2022/07/07 06:17:32;;;;;;;8.50;1.73;;;16.10;99.90;;;;;;5054776;28;20075;-42
2022/07/07 06:19:58;;;;;;;9.18;1.60;;;16.10;99.90;;;;;;5072474;28;20036;-41
2022/07/07 06:22:25;;;;;;;8.00;0.90;;;16.10;99.90;;;;;;5069158;28;20044;-42
2022/07/07 06:24:51;;;;;;;5.78;1.10;;;16.10;99.90;;;;;;5060362;28;20116;-41
2022/07/07 06:27:16;;;;;;;7.88;0.98;;;16.20;99.90;;;;;;5061021;28;20539;-42
2022/07/07 06:29:42;;;;;;;5.78;0.82;;;16.30;99.90;;;;;;5063983;28;20532;-41
2022/07/07 06:32:08;;;;;;;5.75;0.90;;;16.30;99.90;;;;;;5072091;28;20411;-42
2022/07/07 06:34:33;;;;;;;4.97;0.75;;;16.40;99.90;;;;;;5061035;28;20483;-42
2022/07/07 06:36:59;;;;;;;6.50;0.60;;;16.50;99.90;;;;;;5038290;28;20063;-42
2022/07/07 06:39:25;;;;;;;4.05;0.60;;;16.50;99.90;;;;;;5072525;28;20052;-41
2022/07/07 06:41:51;;;;;;;5.60;0.75;;;16.40;99.90;;;;;;5071178;28;20032;-41
2022/07/07 06:44:16;;;;;;;3.03;0.70;;;16.40;99.90;;;;;;5070347;28;20106;-41
2022/07/07 06:46:42;;;;;;;3.25;0.32;;;16.40;99.90;;;;;;5054927;28;20056;-42
2022/07/07 06:49:08;;;;;;;3.63;0.38;;;16.30;99.90;;;;;;5070297;28;20492;-42
2022/07/07 06:51:34;;;;;;;4.07;0.38;;;16.30;99.90;;;;;;5074650;28;20083;-42
2022/07/07 06:54:00;;;;;;;2.95;0.50;;;16.40;99.90;;;;;;5075215;28;20049;-42
2022/07/07 06:56:26;;;;;;;5.50;0.70;;;16.40;99.90;;;;;;5068866;28;20680;-42
2022/07/07 06:58:52;;;;;;;8.13;0.70;;;16.50;99.90;;;;;;5073703;28;20231;-42
2022/07/07 07:01:18;;;;;;;2.45;0.50;;;16.50;99.90;;;;;;5071357;28;20053;-42
2022/07/07 07:03:44;;;;;;;2.53;0.60;;;16.50;99.90;;;;;;5051827;28;20102;-42
2022/07/07 07:06:10;;;;;;;4.38;0.57;;;16.50;99.90;;;;;;5064473;28;20433;-42
2022/07/07 07:08:36;;;;;;;3.97;0.63;;;16.40;99.90;;;;;;5062166;28;20549;-42
2022/07/07 07:11:02;;;;;;;4.85;0.65;;;16.50;99.90;;;;;;5071181;28;20040;-42
2022/07/07 07:13:29;;;;;;;4.95;0.60;;;16.40;99.90;;;;;;5078146;28;20044;-42
2022/07/07 07:15:55;;;;;;;8.13;1.10;;;16.50;99.90;;;;;;5081334;28;20040;-42
2022/07/07 07:18:20;;;;;;;5.72;0.60;;;16.50;99.90;;;;;;5062513;28;20079;-42
2022/07/07 07:20:46;;;;;;;4.10;0.68;;;16.60;99.90;;;;;;5082701;28;20158;-42
2022/07/07 07:23:12;;;;;;;4.15;0.80;;;16.60;99.90;;;;;;5077084;28;20082;-41
2022/07/07 07:25:37;;;;;;;5.07;0.65;;;16.50;99.90;;;;;;5069899;28;20371;-41
2022/07/07 07:28:03;;;;;;;6.63;0.77;;;16.40;99.90;;;;;;5055775;28;20128;-42
2022/07/07 07:30:29;;;;;;;7.30;0.70;;;16.50;99.90;;;;;;5072030;28;20241;-41
2022/07/07 07:32:55;;;;;;;5.35;0.70;;;16.40;99.90;;;;;;5057627;28;21965;-42
2022/07/07 07:35:20;;;;;;;4.13;0.70;;;16.40;99.90;;;;;;5071975;28;20110;-41
2022/07/07 07:37:46;;;;;;;5.18;1.00;;;16.30;99.90;;;;;;5055238;28;20041;-42
2022/07/07 07:40:12;;;;;;;4.03;0.77;;;16.30;99.90;;;;;;5071861;28;20053;-42
2022/07/07 07:42:38;;;;;;;7.50;0.80;;;16.40;99.90;;;;;;5069429;28;20068;-42
2022/07/07 07:45:11;;;;;;;5.32;0.65;;;16.40;99.90;;;;;;5071100;28;20040;-42
2022/07/07 07:47:39;;;;;;;4.43;0.90;;;16.50;99.90;;;;;;5058111;28;20568;-42
2022/07/07 07:50:06;;;;;;;5.93;0.73;;;16.60;99.90;;;;;;5091757;28;20143;-42
2022/07/07 07:52:32;;;;;;;5.90;0.93;;;16.60;99.90;;;;;;5091016;28;20113;-41
2022/07/07 07:54:57;;;;;;;6.07;0.93;;;16.70;99.90;;;;;;5051407;28;20430;-42
2022/07/07 07:57:23;;;;;;;7.97;1.13;;;16.80;99.90;;;;;;5065318;28;20519;-41
2022/07/07 07:59:49;;;;;;;9.85;1.00;;;16.80;99.90;;;;;;5060222;28;20049;-42
2022/07/07 08:02:14;;;;;;;5.93;1.08;;;16.80;99.90;;;;;;5088596;28;20503;-42
2022/07/07 08:04:40;;;;;;;7.47;1.30;;;16.90;99.90;;;;;;5091558;28;20089;-41
2022/07/07 08:07:06;;;;;;;8.10;1.23;;;16.80;99.90;;;;;;5075210;28;20044;-43
2022/07/07 08:09:32;;;;;;;6.38;1.10;;;16.80;99.90;;;;;;5080355;28;20055;-41
2022/07/07 08:11:58;;;;;;;12.68;2.53;;;16.80;99.90;;;;;;5079916;28;20135;-41
2022/07/07 08:14:24;;;;;;;12.57;2.50;;;16.90;99.90;;;;;;5054324;28;20975;-42
2022/07/07 08:16:49;;;;;;;11.27;1.83;;;16.90;99.90;;;;;;5043980;28;20055;-42
2022/07/07 08:19:17;;;;;;;6.72;1.38;;;17.00;99.90;;;;;;5057835;28;20044;-42
2022/07/07 08:21:46;;;;;;;11.43;1.63;;;17.00;99.90;;;;;;5048754;28;21057;-42
2022/07/07 08:24:13;;;;;;;11.18;1.60;;;16.90;99.90;;;;;;5043876;28;20159;-42
2022/07/07 08:26:39;;;;;;;9.75;1.60;;;16.90;99.90;;;;;;5018457;28;21038;-42
2022/07/07 08:29:05;;;;;;;8.20;1.88;;;16.90;99.90;;;;;;5044447;28;20056;-42
2022/07/07 08:31:31;;;;;;;7.93;1.58;;;16.90;99.90;;;;;;5048384;28;20062;-42
2022/07/07 08:33:56;;;;;;;7.07;1.45;;;17.00;99.90;;;;;;5044999;28;20426;-42
2022/07/07 08:36:22;;;;;;;5.03;1.20;;;17.10;99.90;;;;;;5036662;28;20139;-42
2022/07/07 08:38:47;;;;;;;7.38;1.00;;;17.00;99.90;;;;;;5045245;28;20040;-42
2022/07/07 08:41:15;;;;;;;6.13;1.27;;;17.00;99.90;;;;;;5044036;28;20048;-42
2022/07/07 08:43:41;;;;;;;9.30;1.63;;;17.00;99.90;;;;;;5045052;28;20178;-42
2022/07/07 08:46:08;;;;;;;11.95;2.03;;;17.10;99.90;;;;;;5046483;28;20114;-42
2022/07/07 08:48:34;;;;;;;5.68;1.50;;;17.10;99.90;;;;;;5038517;28;20647;-42
2022/07/07 08:51:01;;;;;;;12.38;2.03;;;17.20;99.90;;;;;;5048564;28;20044;-42
2022/07/07 08:53:33;;;;;;;5.45;1.23;;;17.20;99.90;;;;;;5043559;28;20163;-41
2022/07/07 08:56:03;;;;;;;5.22;0.85;;;17.00;99.90;;;;;;5045505;28;20226;-42
2022/07/07 08:58:30;;;;;;;5.97;0.90;;;17.00;99.90;;;;;;5030357;28;20155;-41
2022/07/07 09:00:56;;;;;;;4.80;0.75;;;16.90;99.90;;;;;;5045594;28;20053;-41
2022/07/07 09:03:21;;;;;;;6.65;1.10;;;16.90;99.90;;;;;;5043944;28;20101;-41
2022/07/07 09:05:48;;;;;;;6.43;0.90;;;16.90;99.90;;;;;;5048830;28;20048;-41
2022/07/07 09:08:18;;;;;;;4.38;1.00;;;16.90;99.90;;;;;;5030819;28;20547;-41
2022/07/07 09:10:44;;;;;;;8.10;0.60;;;17.00;99.90;;;;;;5045045;28;20040;-41
2022/07/07 09:13:25;;;;;;;3.00;0.50;;;17.00;99.90;;;;;;5043852;28;20091;-41
2022/07/07 09:15:52;;;;;;;6.77;1.13;;;17.10;99.90;;;;;;5048256;28;20056;-41
2022/07/07 09:18:34;;;;;;;3.97;1.00;;;17.10;99.90;;;;;;5028704;28;20057;-41
2022/07/07 09:21:02;;;;;;;4.68;0.80;;;17.20;99.90;;;;;;5048059;28;20040;-41
2022/07/07 09:23:28;;;;;;;7.47;1.50;;;17.20;99.90;;;;;;5046047;28;20139;-42
2022/07/07 09:25:55;;;;;;;5.55;1.27;;;17.20;99.90;;;;;;5043776;28;20106;-42
2022/07/07 09:28:20;;;;;;;2.80;0.43;;;17.20;99.90;;;;;;5033126;28;20048;-42
2022/07/07 09:30:48;;;;;;;3.40;0.68;;;17.10;99.90;;;;;;5044460;28;20063;-41
2022/07/07 09:33:19;;;;;;;6.30;0.73;;;17.00;99.90;;;;;;5044609;28;20052;-42
2022/07/07 09:38:31;;;;;;;5.30;1.23;;;17.00;99.90;;;;;;5031001;28;20059;-41
2022/07/07 09:41:08;;;;;;;5.20;1.05;;;17.10;99.90;;;;;;5044545;28;20123;-42
2022/07/07 09:43:53;;;;;;;8.73;1.50;;;17.00;99.90;;;;;;5044218;28;20048;-42
2022/07/07 09:46:24;;;;;;;3.53;1.08;;;17.00;99.90;;;;;;5034296;28;20052;-41
2022/07/07 09:48:51;;;;;;;5.82;1.10;;;17.00;99.90;;;;;;5040301;28;20048;-41
2022/07/07 09:51:17;;;;;;;10.30;1.40;;;17.10;99.90;;;;;;5043803;28;20048;-41
2022/07/07 09:53:53;;;;;;;7.95;1.15;;;17.00;99.90;;;;;;5045046;28;20662;-41
2022/07/07 09:56:22;;;;;;;3.78;1.00;;;17.00;99.90;;;;;;5034992;28;20125;-41
2022/07/07 09:58:49;;;;;;;5.53;1.13;;;17.00;99.90;;;;;;5038120;28;20060;-41
2022/07/07 10:01:24;;;;;;;7.60;1.25;;;17.10;99.90;;;;;;5045356;28;20094;-41
2022/07/07 10:03:56;;;;;;;12.80;1.30;;;17.10;99.90;;;;;;5047807;28;22247;-41
2022/07/07 10:06:24;;;;;;;10.60;1.90;;;17.10;99.90;;;;;;5031521;28;20119;-41
2022/07/07 10:09:15;;;;;;;7.88;1.60;;;17.00;99.90;;;;;;5042202;28;20429;-41
2022/07/07 10:11:46;;;;;;;9.73;1.40;;;17.00;99.90;;;;;;5025645;28;20071;-41
2022/07/07 10:14:13;;;;;;;8.77;1.75;;;16.90;99.90;;;;;;5045920;28;20080;-41
2022/07/07 10:16:41;;;;;;;10.32;1.88;;;16.80;99.90;;;;;;5028504;28;20056;-42
2022/07/07 10:19:09;;;;;;;9.45;1.70;;;16.80;99.90;;;;;;5028031;28;20411;-41
2022/07/07 10:21:36;;;;;;;11.52;2.17;;;16.80;99.90;;;;;;5048563;28;20083;-41
2022/07/07 10:24:04;;;;;;;10.60;1.80;;;16.80;99.90;;;;;;5026937;28;20222;-42
2022/07/07 10:26:40;;;;;;;9.82;1.85;;;16.80;99.90;;;;;;5069496;28;20499;-41
2022/07/07 10:29:08;;;;;;;11.13;1.70;;;16.80;99.90;;;;;;5053331;28;20048;-41
2022/07/07 10:31:35;;;;;;;11.70;1.83;;;16.90;99.90;;;;;;5071214;28;20521;-41
2022/07/07 10:34:02;;;;;;;10.77;2.22;;;16.90;99.90;;;;;;5068012;28;20138;-41
2022/07/07 10:36:50;;;;;;;11.45;2.17;;;16.90;99.90;;;;;;5055782;28;20071;-42
2022/07/07 10:39:20;;;;;;;13.60;2.60;;;17.00;99.90;;;;;;5068291;28;20495;-41
2022/07/07 10:42:12;;;;;;;16.33;3.03;;;17.00;99.90;;;;;;5047380;28;20128;-41
2022/07/07 10:44:39;;;;;;;14.65;2.55;;;17.00;99.90;;;;;;5055737;28;20055;-41
2022/07/07 10:47:11;;;;;;;12.90;2.72;;;17.00;99.90;;;;;;5046259;28;20044;-42
2022/07/07 10:49:45;;;;;;;12.93;2.30;;;17.00;99.90;;;;;;5064516;28;20048;-41
2022/07/07 10:52:13;;;;;;;16.23;2.53;;;17.10;99.90;;;;;;5068661;28;20036;-41
2022/07/07 10:54:44;;;;;;;14.27;2.60;;;17.10;99.90;;;;;;5069099;28;20053;-41
2022/07/07 10:57:13;;;;;;;17.65;3.00;;;17.00;99.90;;;;;;5064844;28;20524;-42
2022/07/07 11:00:01;;;;;;;19.30;2.85;;;17.00;99.90;;;;;;5069058;28;20494;-42
2022/07/07 11:02:29;;;;;;;11.85;2.38;;;17.00;99.90;;;;;;5077909;28;20048;-42
2022/07/07 11:04:56;;;;;;;16.27;2.55;;;16.90;99.90;;;;;;5092777;28;20481;-42
2022/07/07 11:07:29;;;;;;;11.50;2.35;;;16.90;99.90;;;;;;5075244;28;20047;-42
2022/07/07 11:10:03;;;;;;;11.45;2.00;;;16.90;99.90;;;;;;5091622;28;20043;-42
2022/07/07 11:12:39;;;;;;;10.88;1.77;;;16.90;99.90;;;;;;5079660;28;20040;-42
2022/07/07 11:15:27;;;;;;;11.43;1.80;;;16.90;99.90;;;;;;5082778;28;20037;-41
2022/07/07 11:17:52;;;;;;;8.95;1.63;;;16.90;99.90;;;;;;5056188;28;20041;-42
2022/07/07 11:20:22;;;;;;;8.20;1.85;;;17.00;99.90;;;;;;5071729;28;20044;-42
2022/07/07 11:22:54;;;;;;;10.70;1.83;;;17.00;99.90;;;;;;5070027;28;20036;-41
2022/07/07 11:25:21;;;;;;;10.52;1.55;;;17.10;99.90;;;;;;5078913;28;20073;-42
2022/07/07 11:27:49;;;;;;;11.95;1.92;;;17.10;99.90;;;;;;5060899;28;20037;-42
2022/07/07 11:30:15;;;;;;;10.57;1.83;;;17.10;99.90;;;;;;5092618;28;20190;-42
2022/07/07 11:32:42;;;;;;;9.27;1.85;;;17.20;99.90;;;;;;5091025;28;20040;-41
2022/07/07 11:35:12;;;;;;;11.18;1.83;;;17.20;99.90;;;;;;5077869;28;20428;-41
2022/07/07 11:37:40;;;;;;;8.98;1.98;;;17.30;99.90;;;;;;5054660;28;20043;-42
2022/07/07 11:40:24;;;;;;;12.73;1.75;;;17.30;99.90;;;;;;5092086;28;20176;-42
2022/07/07 11:42:50;;;;;;;11.93;1.95;;;17.40;99.90;;;;;;5068957;28;20045;-42
2022/07/07 11:45:20;;;;;;;11.88;2.22;;;17.40;99.90;;;;;;5073727;28;20032;-42
2022/07/07 11:47:47;;;;;;;11.70;2.05;;;17.40;99.90;;;;;;5058749;28;20074;-42
2022/07/07 11:50:13;;;;;;;9.20;1.70;;;17.40;99.90;;;;;;5078500;28;20449;-42
2022/07/07 11:52:47;;;;;;;12.13;2.35;;;17.30;99.90;;;;;;5070519;28;20139;-42
2022/07/07 11:55:17;;;;;;;14.77;2.25;;;17.40;99.90;;;;;;5071655;28;20053;-42
2022/07/07 11:57:42;;;;;;;12.30;2.05;;;17.50;99.90;;;;;;5057282;28;20036;-42
2022/07/07 12:00:19;;;;;;;13.13;2.38;;;17.50;99.90;;;;;;5071483;28;20415;-42
2022/07/07 12:02:47;;;;;;;13.90;2.42;;;17.50;99.90;;;;;;5079113;28;20486;-42
2022/07/07 12:05:16;;;;;;;16.58;2.45;;;17.50;99.90;;;;;;5091129;28;20491;-43
2022/07/07 12:07:43;;;;;;;13.93;2.65;;;17.50;99.90;;;;;;5070163;28;20048;-42
2022/07/07 12:10:25;;;;;;;13.45;2.40;;;17.50;99.90;;;;;;5088457;28;20665;-41
2022/07/07 12:12:59;;;;;;;15.60;2.50;;;17.50;99.90;;;;;;5072968;28;20048;-41
2022/07/07 12:15:34;;;;;;;15.60;2.47;;;17.40;99.90;;;;;;5080828;28;20116;-41
2022/07/07 12:18:02;;;;;;;12.43;2.55;;;17.40;99.90;;;;;;5053915;28;20129;-41
2022/07/07 12:20:28;;;;;;;14.52;2.22;;;17.50;99.90;;;;;;5070787;28;20170;-41
2022/07/07 12:22:56;;;;;;;6.63;1.70;;;17.60;99.90;;;;;;5070019;28;20044;-42
2022/07/07 12:25:26;;;;;;;13.63;1.77;;;17.60;99.90;;;;;;5061247;28;20080;-41
2022/07/07 12:28:07;;;;;;;8.73;1.55;;;17.60;99.90;;;;;;5057623;28;20214;-41
2022/07/07 12:30:35;;;;;;;5.88;1.58;;;17.70;99.90;;;;;;5061104;28;20040;-41
2022/07/07 12:33:02;;;;;;;6.18;1.67;;;17.70;99.90;;;;;;5069885;28;20045;-41
2022/07/07 12:35:35;;;;;;;14.57;1.85;;;17.80;99.90;;;;;;5071008;28;20388;-41
2022/07/07 12:38:03;;;;;;;11.15;2.03;;;17.80;99.90;;;;;;4992439;28;20044;-41
2022/07/07 12:40:31;;;;;;;10.00;1.90;;;17.80;99.90;;;;;;5068656;28;20045;-42
2022/07/07 12:43:04;;;;;;;12.70;2.05;;;17.80;99.90;;;;;;5072111;28;20037;-41
2022/07/07 12:45:30;;;;;;;9.70;2.08;;;17.70;99.90;;;;;;5067114;28;20048;-41
2022/07/07 12:47:56;;;;;;;11.50;2.10;;;17.70;99.90;;;;;;5037819;28;20059;-41